KMDT

Harrisburg International Airport

Airport
ICAO code
KMDT
Summary
ICAO Region
NAM
ICAO Territory
Location

Harrisburg, Pennsylvania,

Coordinates
40° 11' 51" N , 76° 45' 49" W
KCC
Airport BS
Bird Strike
Airport WX
Cumulonimbus
Metar
Observation
KMDT 232256Z 00000KT 7SM -RA SCT065 BKN080 OVC100 17/13 A2978 RMK AO2 RAB51 SLP086 P0000 T01720133
Station
Harrisburg, Harrisburg International Airport
Date/Time
2023-03-23 22:56:00
Wind direction
Wind speed
00 kts
Lowest cloud amount
scattered clouds
Temperature
17.2°C
Dew point
13.3°C
Humidity
77%
Weather condition
light rain

Description

Harrisburg International Airport is a public use airport located 15 km southeast of Harrisburg, a city in in Lower Swatara Township, Pennsylvania.

Climatology

In the transition zone between humid “subtropical” climate (Köppen climate classification Cfa) and humid continental (Köppen climate classification Dfa) - characterized by hot, humid summers and cool winters. Significant amounts of precipitation occur in all seasons in most areas. Winter rainfall (and sometimes snowfall) is associated with large storms that the westerlies steer from west to east. Most summer rainfall occurs during thunderstorms.

Runways

Designator Length Width Surface Rops
13/31 3048 61 ASP Yes/Yes

Airport map

Aerial View

SKYbrary Partners:

Safety knowledge contributed by: